createdAt,value
2022-11-18T00:00:43.894Z,323.00
2022-11-18T00:01:43.889Z,365.70
2022-11-18T00:02:43.956Z,361.20
2022-11-18T00:03:43.874Z,361.20
2022-11-18T00:04:43.863Z,340.70
2022-11-18T00:05:43.860Z,341.90
2022-11-18T00:06:43.834Z,334.80
2022-11-18T00:07:43.935Z,319.10
2022-11-18T00:08:43.808Z,356.90
2022-11-18T00:09:43.821Z,373.10
2022-11-18T00:10:43.782Z,383.90
2022-11-18T00:11:43.791Z,69.00
2022-11-18T00:12:43.827Z,241.10
2022-11-18T00:13:43.774Z,233.90
2022-11-18T00:14:43.750Z,111.90
2022-11-18T00:15:43.735Z,79.20
2022-11-18T00:16:43.729Z,358.00
2022-11-18T00:17:43.753Z,71.10
2022-11-18T00:18:43.708Z,99.00
2022-11-18T00:19:43.685Z,331.40
2022-11-18T00:20:43.673Z,362.60
2022-11-18T00:21:43.666Z,326.60
2022-11-18T00:22:43.692Z,358.90
2022-11-18T00:23:43.678Z,333.90
2022-11-18T00:24:43.655Z,346.10
2022-11-18T00:25:43.631Z,339.90
2022-11-18T00:26:43.616Z,345.30
2022-11-18T00:27:43.634Z,348.50
2022-11-18T00:28:43.578Z,344.70
2022-11-18T00:29:43.606Z,334.90
2022-11-18T00:30:43.574Z,335.20
2022-11-18T00:31:43.566Z,339.60
2022-11-18T00:32:43.590Z,329.70
2022-11-18T00:33:43.539Z,317.10
2022-11-18T00:34:43.525Z,362.20
2022-11-18T00:35:43.502Z,342.70
2022-11-18T00:36:43.482Z,351.40
2022-11-18T00:37:43.509Z,355.60
2022-11-18T00:38:43.450Z,362.60
2022-11-18T00:39:43.462Z,388.20
2022-11-18T00:40:43.465Z,354.00
2022-11-18T00:41:43.451Z,383.10
2022-11-18T00:42:43.460Z,357.80
2022-11-18T00:43:43.405Z,400.00
2022-11-18T00:44:43.402Z,394.00
2022-11-18T00:45:43.404Z,399.10
2022-11-18T00:46:43.386Z,398.10
2022-11-18T00:47:43.411Z,383.00
2022-11-18T00:48:43.385Z,331.60
2022-11-18T00:49:43.347Z,386.00
2022-11-18T00:50:43.355Z,381.50
2022-11-18T00:51:43.320Z,376.10
2022-11-18T00:52:43.368Z,385.20
2022-11-18T00:53:43.330Z,370.80
2022-11-18T00:54:43.298Z,367.30
2022-11-18T00:55:43.269Z,353.30
2022-11-18T00:56:43.281Z,391.60
2022-11-18T00:57:43.303Z,396.90
2022-11-18T00:58:43.257Z,318.70
2022-11-18T00:59:43.250Z,348.20
2022-11-18T01:00:43.256Z,350.70
2022-11-18T01:01:43.250Z,354.30
2022-11-18T01:02:43.260Z,284.70
2022-11-18T01:03:43.213Z,73.90
2022-11-18T01:04:43.175Z,226.40
2022-11-18T01:05:43.182Z,214.40
2022-11-18T01:06:43.158Z,166.60
2022-11-18T01:07:43.232Z,347.40
2022-11-18T01:08:43.135Z,395.20
2022-11-18T01:09:43.169Z,347.40
2022-11-18T01:10:43.118Z,394.10
2022-11-18T01:11:43.096Z,371.70
2022-11-18T01:12:43.107Z,365.20
2022-11-18T01:13:43.064Z,354.70
2022-11-18T01:14:43.058Z,378.80
2022-11-18T01:15:43.044Z,386.10
2022-11-18T01:16:43.054Z,373.70
2022-11-18T01:17:43.065Z,384.30
2022-11-18T01:18:43.035Z,348.80
2022-11-18T01:19:43.020Z,384.40
2022-11-18T01:20:43.021Z,378.10
2022-11-18T01:21:43.004Z,387.20
2022-11-18T01:22:43.051Z,362.20
2022-11-18T01:23:43.078Z,349.00
2022-11-18T01:24:42.968Z,379.90
2022-11-18T01:25:42.956Z,357.90
2022-11-18T01:26:42.921Z,349.10
2022-11-18T01:27:42.923Z,325.90
2022-11-18T01:28:42.943Z,375.40
2022-11-18T01:29:42.903Z,347.70
2022-11-18T01:30:42.913Z,369.40
2022-11-18T01:32:08.837Z,335.10
2022-11-18T01:32:43.864Z,341.30
2022-11-18T01:33:42.886Z,352.30
2022-11-18T01:34:42.853Z,326.90
2022-11-18T01:35:42.847Z,339.50
2022-11-18T01:36:42.829Z,328.50
2022-11-18T01:37:42.827Z,329.00
2022-11-18T01:38:42.846Z,319.90
2022-11-18T01:39:42.787Z,316.40
2022-11-18T01:40:42.794Z,332.70
2022-11-18T01:41:42.769Z,315.70
2022-11-18T01:42:42.766Z,318.60
2022-11-18T01:43:42.783Z,320.00
2022-11-18T01:44:42.733Z,322.90
2022-11-18T01:45:42.718Z,328.80
2022-11-18T01:46:42.728Z,319.20
2022-11-18T01:47:42.698Z,322.90
2022-11-18T01:48:42.699Z,326.70
2022-11-18T01:49:42.662Z,328.70
2022-11-18T01:50:42.645Z,329.90
2022-11-18T01:51:42.651Z,326.70
2022-11-18T01:52:45.211Z,324.70
2022-11-18T01:53:43.652Z,322.00
2022-11-18T01:54:42.649Z,331.90
2022-11-18T01:55:42.611Z,336.00
2022-11-18T01:56:42.602Z,326.10
2022-11-18T01:57:42.602Z,329.90
2022-11-18T01:58:42.603Z,346.00
2022-11-18T01:59:42.581Z,339.80
2022-11-18T02:00:42.558Z,324.70
2022-11-18T02:01:42.635Z,335.70
2022-11-18T02:02:42.519Z,330.30
2022-11-18T02:03:42.599Z,317.20
2022-11-18T02:04:42.506Z,322.60
2022-11-18T02:05:42.514Z,338.50
2022-11-18T02:06:42.484Z,333.10
2022-11-18T02:07:42.563Z,333.90
2022-11-18T02:08:42.511Z,334.10
2022-11-18T02:09:42.477Z,337.90
2022-11-18T02:10:42.448Z,336.10
2022-11-18T02:11:42.461Z,331.10
2022-11-18T02:12:42.421Z,327.90
2022-11-18T02:13:42.402Z,325.70
2022-11-18T02:14:42.431Z,335.90
2022-11-18T02:15:42.391Z,335.40
2022-11-18T02:16:42.382Z,296.50
2022-11-18T02:17:42.362Z,142.30
2022-11-18T02:18:42.368Z,312.30
2022-11-18T02:19:42.359Z,288.60
2022-11-18T02:20:42.339Z,299.40
2022-11-18T02:21:42.348Z,214.30
2022-11-18T02:22:42.314Z,230.10
2022-11-18T02:23:42.275Z,198.00
2022-11-18T02:24:42.307Z,307.90
2022-11-18T02:25:42.264Z,348.70
2022-11-18T02:26:42.248Z,474.20
2022-11-18T02:27:42.239Z,332.60
2022-11-18T02:28:42.246Z,339.50
2022-11-18T02:29:42.250Z,338.80
2022-11-18T02:30:42.210Z,350.50
2022-11-18T02:31:42.214Z,356.10
2022-11-18T02:32:42.189Z,349.50
2022-11-18T02:33:42.190Z,341.10
2022-11-18T02:34:42.191Z,334.90
2022-11-18T02:35:42.153Z,337.20
2022-11-18T02:36:42.148Z,347.50
2022-11-18T02:37:42.138Z,349.90
2022-11-18T02:38:42.127Z,345.80
2022-11-18T02:39:42.174Z,343.20
2022-11-18T02:40:42.133Z,309.00
2022-11-18T02:41:42.104Z,327.40
2022-11-18T02:42:42.066Z,353.50
2022-11-18T02:43:42.074Z,335.50
2022-11-18T02:44:42.083Z,336.80
2022-11-18T02:45:42.054Z,358.80
2022-11-18T02:46:42.027Z,344.80
2022-11-18T02:47:42.039Z,347.30
2022-11-18T02:48:42.006Z,340.90
2022-11-18T02:49:41.988Z,344.80
2022-11-18T02:50:42.012Z,348.00
2022-11-18T02:51:41.969Z,353.30
2022-11-18T02:52:41.981Z,352.00
2022-11-18T02:53:41.957Z,336.40
2022-11-18T02:54:41.931Z,343.80
2022-11-18T02:55:41.959Z,340.40
2022-11-18T02:56:41.907Z,346.70
2022-11-18T02:57:41.914Z,343.00
2022-11-18T02:58:41.873Z,361.30
2022-11-18T02:59:41.892Z,348.10
2022-11-18T03:00:41.906Z,359.80
2022-11-18T03:01:41.902Z,355.80
2022-11-18T03:02:41.839Z,364.20
2022-11-18T03:03:41.830Z,367.60
2022-11-18T03:04:41.826Z,364.60
2022-11-18T03:05:41.842Z,364.00
2022-11-18T03:06:41.820Z,373.60
2022-11-18T03:07:41.825Z,383.70
2022-11-18T03:08:41.769Z,380.60
2022-11-18T03:09:41.783Z,383.40
2022-11-18T03:10:41.753Z,391.90
2022-11-18T03:11:41.779Z,372.90
2022-11-18T03:12:41.743Z,387.30
2022-11-18T03:13:41.736Z,387.60
2022-11-18T03:14:41.712Z,414.10
2022-11-18T03:15:41.695Z,396.80
2022-11-18T03:16:41.705Z,393.50
2022-11-18T03:17:41.674Z,367.00
2022-11-18T03:18:41.664Z,383.20
2022-11-18T03:19:41.650Z,392.90
2022-11-18T03:20:41.615Z,392.10
2022-11-18T03:21:41.651Z,390.50
2022-11-18T03:22:41.619Z,384.70
2022-11-18T03:23:41.610Z,398.50
2022-11-18T03:24:41.597Z,387.20
2022-11-18T03:25:41.617Z,414.80
2022-11-18T03:26:41.621Z,389.20
2022-11-18T03:27:41.584Z,398.30
2022-11-18T03:28:41.552Z,395.10
2022-11-18T03:29:41.533Z,403.30
2022-11-18T03:30:41.523Z,406.10
2022-11-18T03:31:41.574Z,398.90
2022-11-18T03:32:41.518Z,396.00
2022-11-18T03:33:41.504Z,395.10
2022-11-18T03:34:41.464Z,391.60
2022-11-18T03:35:41.470Z,387.50
2022-11-18T03:36:41.452Z,392.20
2022-11-18T03:37:41.466Z,400.60
2022-11-18T03:38:41.421Z,397.50
2022-11-18T03:39:41.408Z,398.30
2022-11-18T03:40:41.395Z,407.20
2022-11-18T03:41:41.407Z,397.10
2022-11-18T03:42:41.419Z,393.40
2022-11-18T03:43:41.381Z,387.40
2022-11-18T03:44:41.377Z,383.70
2022-11-18T03:45:41.361Z,389.60
2022-11-18T03:46:41.348Z,392.40
2022-11-18T03:47:41.383Z,387.40
2022-11-18T03:48:41.315Z,396.40
2022-11-18T03:49:41.310Z,382.50
2022-11-18T03:50:41.285Z,385.00
2022-11-18T03:51:41.300Z,392.00
2022-11-18T03:52:41.324Z,381.10
2022-11-18T03:53:41.278Z,415.90
2022-11-18T03:54:41.260Z,389.70
2022-11-18T03:55:41.246Z,392.40
2022-11-18T03:56:41.237Z,398.50
2022-11-18T03:57:41.255Z,384.00
2022-11-18T03:58:41.218Z,390.10
2022-11-18T03:59:41.193Z,405.00
2022-11-18T04:00:41.196Z,380.20
2022-11-18T04:01:41.221Z,400.20
2022-11-18T04:02:41.217Z,378.50
2022-11-18T04:03:41.150Z,390.40
2022-11-18T04:04:41.133Z,363.50
2022-11-18T04:05:41.124Z,389.80
2022-11-18T04:06:41.118Z,394.10
2022-11-18T04:07:41.176Z,392.00
2022-11-18T04:08:41.132Z,399.20
2022-11-18T04:09:41.096Z,353.30
2022-11-18T04:10:41.091Z,368.80
2022-11-18T04:11:41.070Z,300.80
2022-11-18T04:12:41.063Z,330.20
2022-11-18T04:13:41.086Z,314.70
2022-11-18T04:14:41.021Z,309.50
2022-11-18T04:15:40.999Z,306.20
2022-11-18T04:16:40.990Z,319.40
2022-11-18T04:17:40.975Z,339.90
2022-11-18T04:18:41.010Z,319.20
2022-11-18T04:19:40.973Z,582.80
2022-11-18T04:20:40.953Z,327.00
2022-11-18T04:21:40.927Z,321.00
2022-11-18T04:22:40.940Z,311.40
2022-11-18T04:23:40.948Z,321.60
2022-11-18T04:24:40.933Z,321.30
2022-11-18T04:25:40.888Z,312.20
2022-11-18T04:26:40.886Z,304.60
2022-11-18T04:27:40.874Z,319.30
2022-11-18T04:28:40.887Z,321.30
2022-11-18T04:29:40.852Z,194.00
2022-11-18T04:30:40.844Z,335.30
2022-11-18T04:31:40.825Z,345.20
2022-11-18T04:32:40.824Z,252.60
2022-11-18T04:33:40.835Z,345.90
2022-11-18T04:34:40.805Z,159.60
2022-11-18T04:35:40.781Z,307.80
2022-11-18T04:36:40.773Z,333.10
2022-11-18T04:37:40.765Z,276.10
2022-11-18T04:38:40.800Z,393.80
2022-11-18T04:39:40.748Z,432.60
2022-11-18T04:40:40.760Z,385.50
2022-11-18T04:41:40.713Z,453.70
2022-11-18T04:42:40.714Z,374.00
2022-11-18T04:43:40.721Z,535.10
2022-11-18T04:44:40.694Z,500.60
2022-11-18T04:45:40.686Z,501.30
2022-11-18T04:46:40.670Z,510.00
2022-11-18T04:47:40.653Z,492.50
2022-11-18T04:48:40.687Z,465.30
2022-11-18T04:49:40.631Z,505.50
2022-11-18T04:50:40.616Z,485.80
2022-11-18T04:51:40.590Z,465.80
2022-11-18T04:52:40.586Z,545.00
2022-11-18T04:53:40.595Z,441.00
2022-11-18T04:54:40.564Z,461.40
2022-11-18T04:55:40.572Z,368.30
2022-11-18T04:56:45.658Z,498.70
2022-11-18T04:57:41.541Z,500.00
2022-11-18T04:58:40.588Z,481.70
2022-11-18T04:59:40.522Z,489.20
2022-11-18T05:00:40.520Z,458.10
2022-11-18T05:01:40.532Z,483.30
2022-11-18T05:02:40.498Z,466.20
2022-11-18T05:03:40.512Z,472.60
2022-11-18T05:04:40.453Z,459.00
2022-11-18T05:05:40.457Z,470.20
2022-11-18T05:06:40.453Z,455.10
2022-11-18T05:07:40.526Z,580.20
2022-11-18T05:08:40.449Z,438.60
2022-11-18T05:09:40.420Z,407.80
2022-11-18T05:10:40.527Z,363.90
2022-11-18T05:11:40.423Z,403.10
2022-11-18T05:12:40.378Z,438.40
2022-11-18T05:13:40.398Z,443.00
2022-11-18T05:14:43.008Z,457.30
2022-11-18T05:15:41.332Z,452.40
2022-11-18T05:16:40.339Z,449.70
2022-11-18T05:17:40.323Z,306.90
2022-11-18T05:18:40.351Z,468.50
2022-11-18T05:19:40.311Z,471.40
2022-11-18T05:20:41.751Z,467.40
2022-11-18T05:21:40.279Z,439.80
2022-11-18T05:22:40.284Z,450.30
2022-11-18T05:23:40.277Z,413.80
2022-11-18T05:24:40.238Z,396.20
2022-11-18T05:25:40.239Z,405.60
2022-11-18T05:26:40.213Z,543.50
2022-11-18T05:27:40.182Z,431.70
2022-11-18T05:28:40.181Z,154.70
2022-11-18T05:29:40.203Z,381.60
2022-11-18T05:30:40.169Z,230.70
2022-11-18T05:31:40.163Z,490.40
2022-11-18T05:32:40.142Z,470.80
2022-11-18T05:33:40.126Z,459.50
2022-11-18T05:34:40.151Z,465.90
2022-11-18T05:35:40.105Z,469.10
2022-11-18T05:36:40.123Z,467.90
2022-11-18T05:37:40.089Z,421.00
2022-11-18T05:38:40.093Z,450.90
2022-11-18T05:39:40.075Z,451.10
2022-11-18T05:40:40.060Z,435.90
2022-11-18T05:41:40.063Z,446.80
2022-11-18T05:42:40.027Z,409.20
2022-11-18T05:43:40.071Z,441.70
2022-11-18T05:44:40.064Z,428.50
2022-11-18T05:45:39.986Z,420.50
2022-11-18T05:46:40.001Z,423.20
2022-11-18T05:47:39.969Z,432.30
2022-11-18T05:48:39.983Z,467.80
2022-11-18T05:49:40.010Z,435.50
2022-11-18T05:50:39.934Z,410.70
2022-11-18T05:51:39.942Z,462.90
2022-11-18T05:52:39.938Z,610.60
2022-11-18T05:53:39.922Z,474.30
2022-11-18T05:54:39.945Z,508.80
2022-11-18T05:55:39.893Z,485.50
2022-11-18T05:56:39.879Z,571.90
2022-11-18T05:57:39.874Z,477.80
2022-11-18T05:58:39.850Z,427.50
2022-11-18T05:59:39.869Z,441.20
2022-11-18T06:00:39.847Z,432.90
2022-11-18T06:01:39.815Z,416.50
2022-11-18T06:02:39.830Z,418.60
2022-11-18T06:03:39.806Z,434.90
2022-11-18T06:04:39.805Z,382.20
2022-11-18T06:05:39.758Z,377.90
2022-11-18T06:06:39.762Z,456.50
2022-11-18T06:07:39.830Z,466.70
2022-11-18T06:08:39.761Z,431.60
2022-11-18T06:09:39.780Z,435.60
2022-11-18T06:10:39.732Z,416.00
2022-11-18T06:11:39.712Z,424.50
2022-11-18T06:12:39.699Z,431.30
2022-11-18T06:13:39.691Z,413.30
2022-11-18T06:14:39.778Z,416.20
2022-11-18T06:15:39.685Z,426.80
2022-11-18T06:16:41.108Z,404.30
2022-11-18T06:17:39.652Z,407.10
2022-11-18T06:18:39.640Z,470.60
2022-11-18T06:19:39.665Z,454.30
2022-11-18T06:20:39.611Z,432.90
2022-11-18T06:21:39.606Z,436.40
2022-11-18T06:22:44.984Z,404.80
2022-11-18T06:23:40.564Z,418.90
2022-11-18T06:24:39.594Z,439.70
2022-11-18T06:25:39.558Z,420.70
2022-11-18T06:26:39.558Z,413.30
2022-11-18T06:27:39.539Z,408.90
2022-11-18T06:28:39.518Z,413.80
2022-11-18T06:29:39.559Z,429.10
2022-11-18T06:30:39.510Z,402.90
2022-11-18T06:31:39.494Z,421.60
2022-11-18T06:32:39.482Z,415.80
2022-11-18T06:33:39.475Z,417.20
2022-11-18T06:34:41.764Z,429.60
2022-11-18T06:35:39.444Z,416.10
2022-11-18T06:36:39.422Z,421.80
2022-11-18T06:37:39.423Z,436.00
2022-11-18T06:38:39.440Z,459.50
2022-11-18T06:39:39.413Z,497.00
2022-11-18T06:40:39.371Z,806.90
2022-11-18T06:41:39.355Z,705.30
2022-11-18T06:42:39.357Z,701.80
2022-11-18T06:43:39.384Z,710.60
2022-11-18T06:44:39.405Z,676.30
2022-11-18T06:45:39.337Z,498.90
2022-11-18T06:46:39.331Z,491.30
2022-11-18T06:47:39.312Z,500.30
2022-11-18T06:48:39.303Z,520.30
2022-11-18T06:49:39.322Z,319.50
2022-11-18T06:50:39.287Z,486.10
2022-11-18T06:51:39.263Z,654.70
2022-11-18T06:52:39.270Z,510.70
2022-11-18T06:53:39.242Z,475.30
2022-11-18T06:54:39.247Z,500.40
2022-11-18T06:55:39.210Z,486.90
2022-11-18T06:56:39.219Z,485.10
2022-11-18T06:57:39.201Z,486.20
2022-11-18T06:58:39.201Z,467.40
2022-11-18T06:59:39.230Z,468.60
2022-11-18T07:00:39.196Z,461.90
2022-11-18T07:01:39.150Z,470.20
2022-11-18T07:02:39.142Z,352.40
2022-11-18T07:03:39.122Z,526.40
2022-11-18T07:04:39.105Z,542.20
2022-11-18T07:05:39.126Z,584.40
2022-11-18T07:06:39.100Z,514.20
2022-11-18T07:07:42.255Z,516.20
2022-11-18T07:08:39.074Z,521.20
2022-11-18T07:09:39.072Z,508.50
2022-11-18T07:10:39.097Z,493.30
2022-11-18T07:11:39.028Z,535.70
2022-11-18T07:12:39.041Z,628.50
2022-11-18T07:13:43.398Z,489.50
2022-11-18T07:14:39.030Z,530.80
2022-11-18T07:15:39.053Z,480.00
2022-11-18T07:16:38.979Z,613.90
2022-11-18T07:17:38.962Z,506.20
2022-11-18T07:18:38.956Z,452.20
2022-11-18T07:19:38.942Z,471.90
2022-11-18T07:20:38.989Z,464.30
2022-11-18T07:21:38.940Z,770.50
2022-11-18T07:22:38.916Z,569.60
2022-11-18T07:23:38.926Z,287.10
2022-11-18T07:24:38.903Z,561.20
2022-11-18T07:25:44.043Z,725.10
2022-11-18T07:26:39.881Z,300.20
2022-11-18T07:27:38.874Z,529.70
2022-11-18T07:28:38.848Z,719.30
2022-11-18T07:29:38.821Z,474.10
2022-11-18T07:30:38.875Z,442.60
2022-11-18T07:31:38.815Z,476.00
2022-11-18T07:32:38.826Z,657.40
2022-11-18T07:33:38.801Z,435.00
2022-11-18T07:34:38.802Z,432.90
2022-11-18T07:35:38.812Z,449.10
2022-11-18T07:36:38.779Z,505.60
2022-11-18T07:37:38.745Z,540.50
2022-11-18T07:38:38.765Z,591.20
2022-11-18T07:39:38.735Z,482.20
2022-11-18T07:40:38.773Z,572.70
2022-11-18T07:41:38.731Z,337.50
2022-11-18T07:42:38.729Z,456.20
2022-11-18T07:43:38.694Z,725.20
2022-11-18T07:44:38.678Z,793.30
2022-11-18T07:45:38.706Z,1999.90
2022-11-18T07:46:38.660Z,559.90
2022-11-18T07:47:38.634Z,561.30
2022-11-18T07:48:38.640Z,661.00
2022-11-18T07:49:38.670Z,599.90
2022-11-18T07:50:41.934Z,1362.80
2022-11-18T07:51:39.602Z,500.90
2022-11-18T07:52:38.566Z,596.80
2022-11-18T07:53:38.563Z,537.50
2022-11-18T07:54:38.548Z,346.20
2022-11-18T07:55:38.580Z,474.00
2022-11-18T07:56:38.535Z,513.00
2022-11-18T07:57:38.542Z,474.40
2022-11-18T07:58:38.517Z,399.40
2022-11-18T07:59:38.500Z,421.10
2022-11-18T08:00:38.545Z,408.90
2022-11-18T08:01:38.687Z,395.70
2022-11-18T08:02:38.488Z,372.70
2022-11-18T08:03:38.457Z,404.60
2022-11-18T08:04:38.472Z,392.70
2022-11-18T08:05:38.552Z,373.50
2022-11-18T08:06:38.431Z,760.10
2022-11-18T08:07:38.466Z,395.90
2022-11-18T08:08:38.409Z,453.60
2022-11-18T08:09:38.387Z,406.70
2022-11-18T08:10:38.439Z,431.10
2022-11-18T08:11:38.391Z,568.50
2022-11-18T08:12:38.360Z,747.50
2022-11-18T08:13:38.366Z,303.60
2022-11-18T08:14:38.370Z,606.00
2022-11-18T08:15:38.379Z,781.60
2022-11-18T08:16:38.303Z,868.50
2022-11-18T08:17:38.323Z,629.90
2022-11-18T08:18:38.302Z,574.40
2022-11-18T08:19:38.274Z,727.00
2022-11-18T08:20:38.301Z,964.00
2022-11-18T08:21:38.279Z,746.10
2022-11-18T08:22:38.250Z,847.30
2022-11-18T08:23:42.017Z,850.20
2022-11-18T08:24:38.227Z,844.60
2022-11-18T08:25:38.218Z,1999.90
2022-11-18T08:26:38.258Z,629.90
2022-11-18T08:27:38.182Z,1397.20
2022-11-18T08:28:38.238Z,1269.20
2022-11-18T08:29:38.179Z,693.20
2022-11-18T08:30:38.160Z,737.60
2022-11-18T08:31:38.192Z,791.00
2022-11-18T08:32:38.141Z,770.00
2022-11-18T08:33:38.125Z,889.00
2022-11-18T08:34:38.112Z,893.40
2022-11-18T08:35:38.097Z,716.10
2022-11-18T08:36:38.133Z,724.60
2022-11-18T08:37:38.091Z,704.50
2022-11-18T08:38:38.059Z,979.30
2022-11-18T08:39:38.061Z,669.60
2022-11-18T08:40:38.042Z,719.40
2022-11-18T08:41:38.061Z,734.40
2022-11-18T08:42:38.013Z,975.30
2022-11-18T08:43:38.017Z,849.90
2022-11-18T08:44:37.995Z,887.50
2022-11-18T08:45:38.006Z,884.20
2022-11-18T08:46:37.990Z,788.60
2022-11-18T08:47:38.000Z,1212.40
2022-11-18T08:48:37.976Z,737.10
2022-11-18T08:49:37.942Z,765.20
2022-11-18T08:50:37.948Z,1999.90
2022-11-18T08:51:37.973Z,669.10
2022-11-18T08:52:37.917Z,1999.90
2022-11-18T08:53:37.922Z,1999.90
2022-11-18T08:54:37.886Z,1244.40
2022-11-18T08:55:37.865Z,1999.90
2022-11-18T08:56:37.962Z,1999.90
2022-11-18T08:57:37.865Z,1999.90
2022-11-18T08:58:37.851Z,1999.90
2022-11-18T08:59:37.860Z,1999.90
2022-11-18T09:00:37.828Z,1999.90
2022-11-18T09:01:37.899Z,1999.90
2022-11-18T09:02:37.812Z,1999.90
2022-11-18T09:03:37.772Z,1999.90
2022-11-18T09:04:37.764Z,1999.90
2022-11-18T09:05:37.752Z,1999.90
2022-11-18T09:06:37.789Z,1999.90
2022-11-18T09:07:37.784Z,1999.90
2022-11-18T09:08:37.733Z,244.10
2022-11-18T09:09:37.722Z,1999.90
2022-11-18T09:10:37.706Z,1999.90
2022-11-18T09:11:37.726Z,1999.90
2022-11-18T09:12:37.677Z,1999.90
2022-11-18T09:14:04.290Z,1999.90
2022-11-18T09:15:12.902Z,1999.90
2022-11-18T09:15:38.675Z,1999.90
2022-11-18T09:16:37.682Z,1999.90
2022-11-18T09:17:37.759Z,1999.90
2022-11-18T09:18:37.695Z,1999.90
2022-11-18T09:19:47.349Z,1999.90
2022-11-18T09:20:38.600Z,1999.90
2022-11-18T09:21:40.822Z,1999.90
2022-11-18T09:22:37.615Z,1999.90
2022-11-18T09:23:37.565Z,1999.90
2022-11-18T09:24:37.542Z,1999.90
2022-11-18T09:25:37.551Z,1999.90
2022-11-18T09:26:37.582Z,1999.90
2022-11-18T09:27:38.349Z,1999.90
2022-11-18T09:28:37.510Z,1999.90
2022-11-18T09:29:37.505Z,1999.90
2022-11-18T09:30:37.489Z,1999.90
2022-11-18T09:31:37.511Z,1999.90
2022-11-18T09:32:37.473Z,1999.90
2022-11-18T09:33:37.477Z,1999.90
2022-11-18T09:34:37.439Z,1999.90
2022-11-18T09:35:37.430Z,1999.90
2022-11-18T09:36:37.454Z,1999.90
2022-11-18T09:37:37.414Z,1999.90
2022-11-18T09:38:37.387Z,1999.90
2022-11-18T09:39:37.524Z,1999.90
2022-11-18T09:40:37.364Z,1999.90
2022-11-18T09:41:37.391Z,1999.90
2022-11-18T09:42:37.338Z,1999.90
2022-11-18T09:43:37.349Z,1999.90
2022-11-18T09:44:37.314Z,1999.90
2022-11-18T09:45:37.327Z,1999.90
2022-11-18T09:46:37.350Z,1999.90
2022-11-18T09:47:37.298Z,1999.90
2022-11-18T09:48:37.286Z,1999.90
2022-11-18T09:49:37.284Z,1999.90
2022-11-18T09:50:52.683Z,1999.90
2022-11-18T09:51:38.443Z,1999.90
2022-11-18T09:52:37.254Z,1999.90
2022-11-18T09:53:37.255Z,1999.90
2022-11-18T09:54:37.224Z,1999.90
2022-11-18T09:55:37.207Z,1268.60
2022-11-18T09:56:37.305Z,657.80
2022-11-18T09:57:37.214Z,718.50
2022-11-18T09:58:37.181Z,788.40
2022-11-18T09:59:37.176Z,559.60
2022-11-18T10:00:37.155Z,651.00
2022-11-18T10:01:37.199Z,525.00
2022-11-18T10:02:37.169Z,830.80
2022-11-18T10:03:37.093Z,801.50
2022-11-18T10:04:37.103Z,514.00
2022-11-18T10:05:37.086Z,430.50
2022-11-18T10:06:37.086Z,534.90
2022-11-18T10:07:37.179Z,440.00
2022-11-18T10:08:37.077Z,680.70
2022-11-18T10:09:37.047Z,420.90
2022-11-18T10:10:37.046Z,649.00
2022-11-18T10:11:40.349Z,506.50
2022-11-18T10:12:38.050Z,586.70
2022-11-18T10:13:36.999Z,759.30
2022-11-18T10:14:36.979Z,715.00
2022-11-18T10:15:37.074Z,977.70
2022-11-18T10:16:36.980Z,646.50
2022-11-18T10:17:36.995Z,941.00
2022-11-18T10:19:37.934Z,894.90
2022-11-18T10:20:36.939Z,1094.40
2022-11-18T10:21:36.924Z,1137.10
2022-11-18T10:22:36.935Z,1111.40
2022-11-18T10:23:36.912Z,1999.90
2022-11-18T10:24:36.900Z,694.00
2022-11-18T10:25:36.863Z,595.50
2022-11-18T10:26:36.862Z,1009.30
2022-11-18T10:27:36.869Z,513.60
2022-11-18T10:28:36.827Z,455.00
2022-11-18T10:29:36.829Z,501.60
2022-11-18T10:30:36.800Z,476.70
2022-11-18T10:31:36.855Z,456.90
2022-11-18T10:32:36.786Z,422.60
2022-11-18T10:33:36.801Z,473.80
2022-11-18T10:34:36.768Z,425.50
2022-11-18T10:35:36.759Z,150.20
2022-11-18T10:36:36.741Z,62.60
2022-11-18T10:38:06.388Z,206.20
2022-11-18T10:38:37.753Z,410.30
2022-11-18T10:39:36.711Z,385.40
2022-11-18T10:40:36.697Z,404.60
2022-11-18T10:41:36.674Z,405.00
2022-11-18T10:42:36.676Z,407.70
2022-11-18T10:43:36.697Z,382.80
2022-11-18T10:44:36.651Z,453.00
2022-11-18T10:45:36.642Z,382.30
2022-11-18T10:46:36.625Z,399.10
2022-11-18T10:47:36.623Z,299.90
2022-11-18T10:48:36.625Z,371.40
2022-11-18T10:49:36.589Z,382.50
2022-11-18T10:50:36.574Z,405.00
2022-11-18T10:51:36.565Z,411.00
2022-11-18T10:52:36.562Z,381.50
2022-11-18T10:53:36.580Z,426.10
2022-11-18T10:54:36.562Z,479.80
2022-11-18T10:55:36.522Z,521.10
2022-11-18T10:56:36.503Z,444.00
2022-11-18T10:57:36.511Z,397.80
2022-11-18T10:58:36.543Z,421.20
2022-11-18T10:59:36.492Z,325.60
2022-11-18T11:00:36.464Z,279.50
2022-11-18T11:01:36.515Z,386.10
2022-11-18T11:02:36.448Z,402.90
2022-11-18T11:03:36.471Z,410.50
2022-11-18T11:04:36.428Z,397.70
2022-11-18T11:05:36.411Z,407.20
2022-11-18T11:06:36.438Z,276.20
2022-11-18T11:07:36.499Z,301.60
2022-11-18T11:08:37.839Z,329.70
2022-11-18T11:09:36.379Z,319.90
2022-11-18T11:10:36.380Z,343.90
2022-11-18T11:11:36.347Z,369.60
2022-11-18T11:12:36.321Z,354.40
2022-11-18T11:13:36.339Z,327.10
2022-11-18T11:14:36.318Z,132.80
2022-11-18T11:15:36.320Z,43.50
2022-11-18T11:16:36.288Z,105.20
2022-11-18T11:17:36.418Z,29.90
2022-11-18T11:18:36.323Z,16.50
2022-11-18T11:19:36.260Z,99.70
2022-11-18T11:20:36.256Z,94.00
2022-11-18T11:21:36.229Z,271.90
2022-11-18T11:22:36.224Z,376.50
2022-11-18T11:23:36.258Z,352.70
2022-11-18T11:24:36.181Z,364.60
2022-11-18T11:28:37.181Z,104.80
2022-11-18T11:29:36.147Z,105.00
2022-11-18T11:30:36.142Z,308.30
2022-11-18T11:31:36.117Z,516.10
2022-11-18T11:32:36.113Z,523.80
2022-11-18T11:33:36.132Z,510.40
2022-11-18T11:34:36.085Z,526.30
2022-11-18T11:35:36.098Z,521.90
2022-11-18T11:36:36.076Z,496.40
2022-11-18T11:37:36.059Z,417.00
2022-11-18T11:38:36.071Z,375.70
2022-11-18T11:39:36.031Z,263.40
2022-11-18T11:40:36.034Z,266.10
2022-11-18T11:41:36.032Z,263.10
2022-11-18T11:42:35.987Z,286.50
2022-11-18T11:43:35.997Z,296.10
2022-11-18T11:44:36.005Z,316.70
2022-11-18T11:45:35.988Z,297.70
2022-11-18T11:46:35.940Z,246.70
2022-11-18T11:47:35.957Z,256.90
2022-11-18T11:48:35.927Z,222.40
2022-11-18T11:49:35.946Z,220.80
2022-11-18T11:50:35.910Z,75.10
2022-11-18T11:51:35.909Z,38.70
2022-11-18T11:52:35.901Z,18.30
2022-11-18T11:53:35.893Z,101.50
2022-11-18T11:54:35.893Z,105.70
2022-11-18T11:55:35.847Z,41.50
2022-11-18T11:56:35.856Z,135.20
2022-11-18T11:57:35.835Z,294.00
2022-11-18T11:58:35.799Z,314.50
2022-11-18T11:59:35.854Z,329.00
2022-11-18T12:00:35.761Z,303.60
2022-11-18T12:01:35.762Z,318.80
2022-11-18T12:02:35.817Z,315.00
2022-11-18T12:03:35.741Z,315.10
2022-11-18T12:04:35.766Z,313.30
2022-11-18T12:05:35.736Z,296.70
2022-11-18T12:06:35.718Z,296.70
2022-11-18T12:07:35.845Z,279.80
2022-11-18T12:08:35.711Z,278.10
2022-11-18T12:09:35.749Z,247.60
2022-11-18T12:10:35.718Z,24.00
2022-11-18T12:11:35.675Z,81.60
2022-11-18T12:12:35.658Z,92.20
2022-11-18T12:13:35.658Z,90.90
2022-11-18T12:14:39.712Z,60.80
2022-11-18T12:15:35.654Z,109.30
2022-11-18T12:16:35.620Z,20.50
2022-11-18T12:17:35.606Z,127.30
2022-11-18T12:18:35.592Z,68.20
2022-11-18T12:19:35.609Z,243.50
2022-11-18T12:20:35.574Z,245.50
2022-11-18T12:21:35.565Z,227.10
2022-11-18T12:22:35.554Z,229.80
2022-11-18T12:23:35.542Z,215.70
2022-11-18T12:24:35.550Z,189.90
2022-11-18T12:25:35.523Z,198.40
2022-11-18T12:26:35.491Z,214.00
2022-11-18T12:27:35.486Z,246.40
2022-11-18T12:28:35.480Z,254.10
2022-11-18T12:29:35.496Z,226.50
2022-11-18T12:30:35.438Z,198.80